Time;durP1;ratioP1;P1;durP2;ratioP2;P2;SDS_P1;SDS_P2;PMS_P1;PMS_P2;Temp;Humidity;BMP_temperature;BMP_pressure;BME280_temperature;BME280_humidity;BME280_pressure;Samples;Min_cycle;Max_cycle;Signal;HPM_P1;HPM_P2
2022/03/15 00:00:22;;;;;;;10.90;3.53;;;;;;;;;;6214972;23;20008;-86
2022/03/15 00:02:49;;;;;;;8.57;3.25;;;;;;;;;;6241327;23;20433;-86
2022/03/15 00:05:18;;;;;;;9.70;3.40;;;;;;;;;;6214215;23;19997;-85
2022/03/15 00:07:45;;;;;;;12.45;3.90;;;;;;;;;;6241614;23;19996;-85
2022/03/15 00:10:12;;;;;;;5.85;3.40;;;;;;;;;;6241939;23;20008;-85
2022/03/15 00:12:42;;;;;;;11.00;3.42;;;;;;;;;;6214805;23;20004;-86
2022/03/15 00:15:09;;;;;;;6.75;3.00;;;;;;;;;;6241825;23;20026;-86
2022/03/15 00:17:36;;;;;;;9.15;3.22;;;;;;;;;;6214366;23;20012;-86
2022/03/15 00:20:03;;;;;;;6.45;3.30;;;;;;;;;;6242554;23;20023;-86
2022/03/15 00:22:34;;;;;;;8.00;3.70;;;;;;;;;;6242501;23;20429;-86
2022/03/15 00:25:02;;;;;;;14.27;3.75;;;;;;;;;;6242760;23;20004;-85
2022/03/15 00:27:28;;;;;;;12.20;3.28;;;;;;;;;;6214730;23;20004;-86
2022/03/15 00:29:54;;;;;;;10.60;3.40;;;;;;;;;;6241715;23;20400;-85
2022/03/15 00:32:20;;;;;;;11.38;3.35;;;;;;;;;;6214621;23;20036;-85
2022/03/15 00:34:49;;;;;;;9.35;3.28;;;;;;;;;;6217626;23;20004;-86
2022/03/15 00:37:15;;;;;;;6.32;3.17;;;;;;;;;;6246772;23;20018;-86
2022/03/15 00:39:42;;;;;;;9.38;3.33;;;;;;;;;;6250740;23;20011;-86
2022/03/15 00:42:08;;;;;;;9.82;3.53;;;;;;;;;;6216878;23;20055;-86
2022/03/15 00:44:35;;;;;;;10.10;3.28;;;;;;;;;;6241571;23;20002;-86
2022/03/15 00:47:01;;;;;;;9.85;3.40;;;;;;;;;;6242393;23;20007;-86
2022/03/15 00:49:27;;;;;;;10.13;3.58;;;;;;;;;;6214510;23;20039;-86
2022/03/15 00:51:54;;;;;;;10.25;3.35;;;;;;;;;;6241516;23;19997;-86
2022/03/15 00:54:21;;;;;;;12.43;3.28;;;;;;;;;;6241477;23;20436;-86
2022/03/15 00:56:47;;;;;;;15.75;3.72;;;;;;;;;;6241241;23;20004;-86
2022/03/15 00:59:15;;;;;;;7.45;3.08;;;;;;;;;;6213956;23;20016;-85
2022/03/15 01:01:41;;;;;;;9.55;3.05;;;;;;;;;;6241125;23;20447;-86
2022/03/15 01:04:07;;;;;;;6.95;3.60;;;;;;;;;;6214060;23;20175;-86
2022/03/15 01:06:34;;;;;;;11.35;3.25;;;;;;;;;;6215514;23;20001;-86
2022/03/15 01:09:01;;;;;;;10.60;3.47;;;;;;;;;;6242304;23;20079;-85
2022/03/15 01:11:27;;;;;;;10.90;3.60;;;;;;;;;;6214255;23;20344;-85
2022/03/15 01:13:53;;;;;;;8.93;3.55;;;;;;;;;;6214437;23;20015;-86
2022/03/15 01:16:20;;;;;;;9.70;3.30;;;;;;;;;;6213750;23;20012;-86
2022/03/15 01:18:46;;;;;;;11.70;3.05;;;;;;;;;;6240724;23;20372;-85
2022/03/15 01:21:15;;;;;;;11.20;3.20;;;;;;;;;;6214347;23;20310;-86
2022/03/15 01:23:41;;;;;;;8.23;3.08;;;;;;;;;;6213968;23;20008;-86
2022/03/15 01:26:08;;;;;;;6.78;3.53;;;;;;;;;;6214122;23;20022;-86
2022/03/15 01:28:35;;;;;;;9.13;3.50;;;;;;;;;;6215163;23;20032;-86
2022/03/15 01:31:01;;;;;;;9.38;3.47;;;;;;;;;;6213875;23;20065;-86
2022/03/15 01:33:27;;;;;;;11.98;3.30;;;;;;;;;;6240712;23;20339;-86
2022/03/15 01:35:53;;;;;;;7.60;3.13;;;;;;;;;;6240999;23;20004;-86
2022/03/15 01:38:19;;;;;;;8.18;3.10;;;;;;;;;;6213968;23;20012;-85
2022/03/15 01:40:45;;;;;;;8.70;3.22;;;;;;;;;;6240955;23;20448;-87
2022/03/15 01:43:12;;;;;;;5.93;3.13;;;;;;;;;;6240789;23;20000;-85
2022/03/15 01:45:39;;;;;;;10.32;3.85;;;;;;;;;;6240769;23;20333;-86
2022/03/15 01:48:05;;;;;;;9.50;3.22;;;;;;;;;;6214835;23;20065;-86
2022/03/15 01:50:32;;;;;;;8.48;3.50;;;;;;;;;;6214153;23;20004;-85
2022/03/15 01:52:58;;;;;;;8.82;3.30;;;;;;;;;;6240910;23;20675;-86
2022/03/15 01:55:24;;;;;;;7.45;4.03;;;;;;;;;;6240769;23;20007;-86
2022/03/15 01:57:50;;;;;;;7.30;3.90;;;;;;;;;;6213539;23;20062;-87
2022/03/15 02:00:17;;;;;;;7.65;3.42;;;;;;;;;;6240492;23;20003;-86
2022/03/15 02:02:44;;;;;;;7.50;3.42;;;;;;;;;;6240795;23;20008;-85
2022/03/15 02:05:11;;;;;;;8.52;3.05;;;;;;;;;;6213827;23;20081;-86
2022/03/15 02:07:38;;;;;;;8.38;3.53;;;;;;;;;;6214341;23;20008;-85
2022/03/15 02:10:05;;;;;;;8.45;3.47;;;;;;;;;;6214668;23;20348;-86
2022/03/15 02:12:31;;;;;;;8.65;3.60;;;;;;;;;;6213638;23;20058;-85
2022/03/15 02:15:01;;;;;;;8.93;3.60;;;;;;;;;;6213193;23;20000;-86
2022/03/15 02:17:27;;;;;;;8.07;3.58;;;;;;;;;;6213958;23;20019;-86
2022/03/15 02:19:54;;;;;;;7.18;3.45;;;;;;;;;;6240683;23;20000;-86
2022/03/15 02:22:20;;;;;;;9.07;3.55;;;;;;;;;;6213564;23;20054;-86
2022/03/15 02:24:46;;;;;;;7.00;3.35;;;;;;;;;;6240724;23;20031;-86
2022/03/15 02:27:12;;;;;;;7.95;3.25;;;;;;;;;;6240431;23;20000;-86
2022/03/15 02:29:39;;;;;;;10.25;3.78;;;;;;;;;;6241388;23;20000;-85
2022/03/15 02:32:05;;;;;;;7.40;3.10;;;;;;;;;;6241221;23;20047;-86
2022/03/15 02:34:31;;;;;;;8.23;3.65;;;;;;;;;;6213084;23;20004;-86
2022/03/15 02:36:57;;;;;;;5.25;3.35;;;;;;;;;;6213208;23;20000;-85
2022/03/15 02:39:23;;;;;;;8.30;3.70;;;;;;;;;;6241179;23;20012;-85
2022/03/15 02:41:49;;;;;;;7.90;3.58;;;;;;;;;;6240254;23;20003;-85
2022/03/15 02:44:16;;;;;;;7.25;3.08;;;;;;;;;;6213186;23;20340;-84
2022/03/15 02:46:43;;;;;;;9.50;3.90;;;;;;;;;;6239801;23;20058;-85
2022/03/15 02:49:09;;;;;;;13.32;3.70;;;;;;;;;;6215212;23;20031;-90
2022/03/15 02:51:36;;;;;;;10.30;3.88;;;;;;;;;;6241662;23;20024;-85
2022/03/15 02:54:07;;;;;;;9.65;3.53;;;;;;;;;;6240374;23;20368;-84
2022/03/15 02:56:39;;;;;;;8.45;3.78;;;;;;;;;;6240456;23;20087;-87
2022/03/15 02:59:06;;;;;;;4.28;3.30;;;;;;;;;;6213567;23;20517;-86
2022/03/15 03:01:32;;;;;;;7.05;4.00;;;;;;;;;;6241363;23;20022;-87
2022/03/15 03:03:58;;;;;;;8.88;4.05;;;;;;;;;;6240623;23;20004;-84
2022/03/15 03:06:25;;;;;;;6.30;3.95;;;;;;;;;;6240478;23;20008;-84
2022/03/15 03:08:51;;;;;;;6.72;3.72;;;;;;;;;;6241742;23;20054;-84
2022/03/15 03:11:18;;;;;;;7.22;3.85;;;;;;;;;;6214692;23;20390;-85
2022/03/15 03:13:44;;;;;;;8.00;4.00;;;;;;;;;;6216208;23;20090;-85
2022/03/15 03:16:14;;;;;;;5.90;3.60;;;;;;;;;;6241444;23;20067;-84
2022/03/15 03:18:40;;;;;;;6.05;3.53;;;;;;;;;;6214512;23;20008;-84
2022/03/15 03:21:07;;;;;;;6.10;3.67;;;;;;;;;;6240635;23;20387;-83
2022/03/15 03:23:35;;;;;;;6.78;3.80;;;;;;;;;;6240037;23;20008;-85
2022/03/15 03:26:01;;;;;;;8.13;3.80;;;;;;;;;;6240370;23;20004;-85
2022/03/15 03:28:36;;;;;;;8.82;4.43;;;;;;;;;;6240227;23;20084;-83
2022/03/15 03:31:04;;;;;;;8.05;3.58;;;;;;;;;;6213262;23;20488;-84
2022/03/15 03:33:30;;;;;;;12.50;4.60;;;;;;;;;;6240127;23;20463;-84
2022/03/15 03:35:57;;;;;;;10.00;3.90;;;;;;;;;;6213128;23;20234;-84
2022/03/15 03:38:23;;;;;;;7.72;3.85;;;;;;;;;;6239793;23;20062;-84
2022/03/15 03:40:50;;;;;;;6.90;3.90;;;;;;;;;;6241060;23;20001;-84
2022/03/15 03:43:16;;;;;;;9.05;4.20;;;;;;;;;;6215003;23;20028;-84
2022/03/15 03:45:43;;;;;;;5.90;3.55;;;;;;;;;;6242927;23;19996;-84
2022/03/15 03:48:09;;;;;;;9.10;3.90;;;;;;;;;;6242837;23;20103;-84
2022/03/15 03:50:35;;;;;;;8.05;3.75;;;;;;;;;;6241830;23;20322;-86
2022/03/15 03:53:02;;;;;;;9.15;4.25;;;;;;;;;;6241611;23;20007;-84
2022/03/15 03:55:29;;;;;;;8.27;3.80;;;;;;;;;;6215078;23;20349;-85
2022/03/15 03:57:55;;;;;;;5.28;3.88;;;;;;;;;;6214817;23;20461;-84
2022/03/15 04:00:21;;;;;;;8.27;4.05;;;;;;;;;;6214931;23;20000;-85
2022/03/15 04:02:47;;;;;;;6.85;3.90;;;;;;;;;;6241827;23;20023;-84
2022/03/15 04:05:15;;;;;;;7.43;3.95;;;;;;;;;;6242751;23;20000;-85
2022/03/15 04:07:41;;;;;;;10.85;4.13;;;;;;;;;;6242734;23;20383;-85
2022/03/15 04:10:08;;;;;;;8.23;4.25;;;;;;;;;;6241792;23;20003;-85
2022/03/15 04:12:34;;;;;;;14.60;4.78;;;;;;;;;;6214924;23;20567;-84
2022/03/15 04:15:01;;;;;;;7.68;4.65;;;;;;;;;;6215018;23;20005;-84
2022/03/15 04:17:27;;;;;;;7.75;4.72;;;;;;;;;;6214523;23;20012;-85
2022/03/15 04:19:53;;;;;;;9.82;4.93;;;;;;;;;;6241537;23;20455;-86
2022/03/15 04:22:19;;;;;;;9.40;4.32;;;;;;;;;;6241604;23;20337;-85
2022/03/15 04:24:46;;;;;;;7.20;4.65;;;;;;;;;;6241972;23;20011;-84
2022/03/15 04:27:12;;;;;;;6.63;4.60;;;;;;;;;;6242506;23;20000;-85
2022/03/15 04:29:38;;;;;;;8.45;4.68;;;;;;;;;;6214521;23;20026;-84
2022/03/15 04:32:05;;;;;;;9.65;4.63;;;;;;;;;;6241508;23;20004;-86
2022/03/15 04:34:34;;;;;;;6.88;3.90;;;;;;;;;;6242954;23;20001;-89
2022/03/15 04:37:00;;;;;;;9.57;4.43;;;;;;;;;;6214783;23;20479;-85
2022/03/15 04:39:26;;;;;;;10.10;4.10;;;;;;;;;;6241380;23;20007;-87
2022/03/15 04:41:52;;;;;;;6.95;4.40;;;;;;;;;;6241520;23;20004;-87
2022/03/15 04:44:19;;;;;;;7.60;4.60;;;;;;;;;;6241335;23;20058;-87
2022/03/15 04:46:45;;;;;;;12.27;5.32;;;;;;;;;;6242437;23;20456;-85
2022/03/15 04:49:11;;;;;;;6.20;4.47;;;;;;;;;;6240844;23;20055;-84
2022/03/15 04:51:38;;;;;;;10.63;4.97;;;;;;;;;;6241289;23;20083;-84
2022/03/15 04:54:04;;;;;;;7.82;4.50;;;;;;;;;;6241213;23;20004;-84
2022/03/15 04:56:30;;;;;;;7.82;4.90;;;;;;;;;;6241111;23;20004;-84
2022/03/15 04:58:56;;;;;;;10.93;4.85;;;;;;;;;;6214183;23;20012;-83
2022/03/15 05:01:22;;;;;;;13.15;5.13;;;;;;;;;;6241393;23;20003;-84
2022/03/15 05:03:48;;;;;;;5.47;4.55;;;;;;;;;;6241195;23;20011;-85
2022/03/15 05:06:14;;;;;;;11.95;5.22;;;;;;;;;;6215483;23;20000;-84
2022/03/15 05:08:40;;;;;;;11.20;5.40;;;;;;;;;;6241311;23;20004;-85
2022/03/15 05:11:06;;;;;;;9.23;5.00;;;;;;;;;;6240374;23;20011;-84
2022/03/15 05:13:38;;;;;;;9.48;4.97;;;;;;;;;;6240750;23;20066;-87
2022/03/15 05:16:04;;;;;;;6.32;5.03;;;;;;;;;;6214227;23;20004;-87
2022/03/15 05:18:30;;;;;;;6.88;4.80;;;;;;;;;;6214173;23;20022;-84
2022/03/15 05:20:56;;;;;;;7.07;5.25;;;;;;;;;;6241383;23;20000;-85
2022/03/15 05:23:22;;;;;;;6.78;4.85;;;;;;;;;;6214080;23;20004;-84
2022/03/15 05:25:48;;;;;;;8.15;5.28;;;;;;;;;;6241575;23;20467;-84
2022/03/15 05:28:14;;;;;;;10.30;5.32;;;;;;;;;;6241848;23;20001;-84
2022/03/15 05:30:40;;;;;;;8.00;5.40;;;;;;;;;;6214096;23;20004;-84
2022/03/15 05:33:06;;;;;;;9.50;6.25;;;;;;;;;;6240971;23;20440;-84
2022/03/15 05:35:32;;;;;;;10.27;5.22;;;;;;;;;;6214209;23;20008;-83
2022/03/15 05:37:59;;;;;;;9.43;5.78;;;;;;;;;;6213984;23;20016;-83
2022/03/15 05:40:25;;;;;;;8.98;5.45;;;;;;;;;;6240819;23;20075;-84
2022/03/15 05:42:51;;;;;;;9.35;6.65;;;;;;;;;;6241322;23;20011;-85
2022/03/15 05:45:17;;;;;;;14.98;5.95;;;;;;;;;;6242309;23;19996;-83
2022/03/15 05:47:43;;;;;;;10.07;5.47;;;;;;;;;;6241463;23;20000;-83
2022/03/15 05:50:09;;;;;;;8.65;6.05;;;;;;;;;;6241512;23;20417;-84
2022/03/15 05:52:35;;;;;;;8.13;6.50;;;;;;;;;;6241048;23;20004;-83
2022/03/15 05:55:02;;;;;;;9.90;6.47;;;;;;;;;;6240871;23;19997;-84
2022/03/15 05:57:28;;;;;;;9.95;5.88;;;;;;;;;;6240987;23;20015;-83
2022/03/15 05:59:54;;;;;;;10.13;6.00;;;;;;;;;;6240455;23;20011;-83
2022/03/15 06:02:21;;;;;;;10.05;6.00;;;;;;;;;;6241532;23;20503;-83
2022/03/15 06:05:22;;;;;;;;;;;;;;;;;;;;;
2022/03/15 10:24:40;;;;;;;;;;;;;;;;;;;;;
2022/03/15 10:52:58;;;;;;;10.70;7.88;;;;;;;;;;5777578;24;20010;-91
2022/03/15 10:58:34;;;;;;;10.18;7.90;;;;;;;;;;5812532;24;20037;-90
2022/03/15 11:29:41;;;;;;;;;;;;;;;;;;;;;
2022/03/15 11:35:22;;;;;;;12.63;8.60;;;;;;;;;;5786835;24;20100;-92
2022/03/15 11:37:58;;;;;;;14.13;8.70;;;;;;;;;;5880818;24;20026;-93
2022/03/15 11:44:01;;;;;;;13.52;8.23;;;;;;;;;;6061235;23;20042;-92
2022/03/15 11:46:57;;;;;;;;;;;;;;;;;;;;;
2022/03/15 11:49:32;;;;;;;14.50;9.25;;;;;;;;;;6151437;23;20072;-93
2022/03/15 11:55:17;;;;;;;10.38;8.10;;;;;;;;;;6150824;23;20029;-93
2022/03/15 11:58:26;;;;;;;;;;;;;;;;;;;;;
2022/03/15 12:01:10;;;;;;;;;;;;;;;;;;;;;
2022/03/15 12:03:57;;;;;;;13.82;8.50;;;;;;;;;;6148148;23;20009;-92
2022/03/15 12:06:49;;;;;;;19.83;8.88;;;;;;;;;;6123807;23;20033;-93
2022/03/15 12:09:36;;;;;;;12.75;8.65;;;;;;;;;;6182713;23;20399;-94
2022/03/15 12:12:25;;;;;;;12.23;7.70;;;;;;;;;;6181317;23;20008;-92
2022/03/15 12:15:15;;;;;;;12.15;8.25;;;;;;;;;;6170024;23;20189;-92
2022/03/15 12:17:59;;;;;;;17.10;8.38;;;;;;;;;;6168842;23;20039;-94
2022/03/15 12:20:48;;;;;;;13.00;7.88;;;;;;;;;;6181384;23;20077;-91
2022/03/15 12:26:52;;;;;;;13.77;8.15;;;;;;;;;;6169315;23;20005;-93
2022/03/15 12:29:37;;;;;;;19.90;8.30;;;;;;;;;;6177298;23;20009;-91
2022/03/15 12:32:18;;;;;;;14.57;8.63;;;;;;;;;;6181396;23;20005;-92
2022/03/15 12:35:08;;;;;;;14.20;8.60;;;;;;;;;;6181189;23;20430;-93
2022/03/15 12:40:47;;;;;;;12.98;7.90;;;;;;;;;;6169881;23;20454;-94
2022/03/15 12:44:01;;;;;;;13.18;8.10;;;;;;;;;;6178490;23;20023;-92
2022/03/15 12:53:25;;;;;;;13.90;8.70;;;;;;;;;;5873379;24;20006;-92
2022/03/15 13:50:37;;;;;;;;;;;;;;;;;;;;;
2022/03/15 13:56:48;;;;;;;;;;;;;;;;;;;;;
2022/03/15 13:59:23;;;;;;;17.63;9.40;;;;;;;;;;5948552;24;20061;-93
2022/03/15 14:11:40;;;;;;;17.45;8.77;;;;;;;;;;5723537;25;20069;-92
2022/03/15 14:14:08;;;;;;;17.83;8.88;;;;;;;;;;5837376;24;20147;-91
2022/03/15 14:16:42;;;;;;;15.80;9.30;;;;;;;;;;6006384;23;20014;-91
2022/03/15 14:19:16;;;;;;;15.80;8.68;;;;;;;;;;6039966;23;20007;-92
2022/03/15 14:21:44;;;;;;;15.35;9.13;;;;;;;;;;6176670;23;20005;-91
2022/03/15 14:24:37;;;;;;;;;;;;;;;;;;;;;
2022/03/15 14:29:56;;;;;;;18.45;8.63;;;;;;;;;;6152241;23;20080;-91
2022/03/15 14:32:37;;;;;;;16.52;8.88;;;;;;;;;;6181375;23;19997;-91
2022/03/15 14:35:06;;;;;;;19.00;8.55;;;;;;;;;;6181018;23;20008;-92
2022/03/15 14:37:34;;;;;;;20.52;9.25;;;;;;;;;;6182028;23;20017;-92
2022/03/15 14:40:03;;;;;;;14.13;8.45;;;;;;;;;;6181949;23;20013;-92
2022/03/15 14:42:53;;;;;;;29.85;9.85;;;;;;;;;;6182272;23;20083;-92
2022/03/15 14:45:36;;;;;;;;;;;;;;;;;;;;;
2022/03/15 14:48:33;;;;;;;26.50;9.32;;;;;;;;;;6183491;23;20092;-92
2022/03/15 14:51:13;;;;;;;;;;;;;;;;;;;;;
2022/03/15 14:53:49;;;;;;;17.95;8.57;;;;;;;;;;6183038;23;20087;-92
2022/03/15 14:56:20;;;;;;;19.70;9.13;;;;;;;;;;6181473;23;20008;-94
2022/03/15 14:59:22;;;;;;;;;;;;;;;;;;;;;
2022/03/15 15:01:51;;;;;;;19.42;8.30;;;;;;;;;;6181992;23;20092;-89
2022/03/15 15:04:44;;;;;;;20.83;8.70;;;;;;;;;;6183355;23;20008;-91
2022/03/15 15:07:30;;;;;;;18.05;8.70;;;;;;;;;;6188910;23;20001;-92
2022/03/15 15:15:51;;;;;;;15.35;8.80;;;;;;;;;;6182195;23;20104;-92
2022/03/15 15:18:26;;;;;;;16.60;8.60;;;;;;;;;;6180692;23;20074;-91
2022/03/15 15:20:56;;;;;;;29.45;8.43;;;;;;;;;;6181040;23;20001;-92
2022/03/15 15:23:52;;;;;;;17.98;9.18;;;;;;;;;;6180623;23;20366;-92
2022/03/15 15:26:54;;;;;;;16.35;9.20;;;;;;;;;;6180987;23;20442;-91
2022/03/15 15:29:25;;;;;;;26.05;9.43;;;;;;;;;;6178791;23;20012;-92
2022/03/15 15:32:00;;;;;;;21.13;9.63;;;;;;;;;;6180508;23;20088;-92
2022/03/15 15:34:31;;;;;;;18.00;8.90;;;;;;;;;;6180822;23;20030;-90
2022/03/15 15:36:57;;;;;;;21.15;9.60;;;;;;;;;;6180772;23;20135;-91
2022/03/15 15:42:30;;;;;;;17.67;8.88;;;;;;;;;;6108811;23;20008;-91
2022/03/15 15:45:01;;;;;;;21.67;10.15;;;;;;;;;;6171301;23;20005;-92
2022/03/15 15:47:42;;;;;;;;;;;;;;;;;;;;;
2022/03/15 15:50:12;;;;;;;28.70;9.20;;;;;;;;;;6182644;23;20598;-91
2022/03/15 15:53:01;;;;;;;15.02;8.57;;;;;;;;;;6181121;23;20009;-92
2022/03/15 15:55:40;;;;;;;;;;;;;;;;;;;;;
2022/03/15 15:58:09;;;;;;;18.13;9.10;;;;;;;;;;6205889;23;20548;-93
2022/03/15 16:03:57;;;;;;;22.80;9.15;;;;;;;;;;6094849;23;20089;-93
2022/03/15 16:06:24;;;;;;;19.45;8.23;;;;;;;;;;6206504;23;20345;-90
2022/03/15 16:09:30;;;;;;;;;;;;;;;;;;;;;
2022/03/15 16:44:43;;;;;;;22.80;8.68;;;;;;;;;;5710001;25;20055;-95
2022/03/15 17:12:58;;;;;;;24.87;7.60;;;;;;;;;;5552139;22;15751066;-93
2022/03/15 17:15:32;;;;;;;23.90;7.85;;;;;;;;;;6225356;23;20008;-90
2022/03/15 17:49:21;;;;;;;21.88;7.55;;;;;;;;;;6224525;22;20027;-90
2022/03/15 17:51:47;;;;;;;20.98;7.70;;;;;;;;;;6223995;23;20008;-91
2022/03/15 17:57:26;;;;;;;23.88;8.02;;;;;;;;;;6132271;23;20017;-92
2022/03/15 18:00:06;;;;;;;17.75;8.32;;;;;;;;;;6227436;23;20379;-90
2022/03/15 18:05:41;;;;;;;19.15;8.02;;;;;;;;;;6128346;23;20012;-91
2022/03/15 18:08:15;;;;;;;32.17;9.05;;;;;;;;;;6235706;23;20020;-90
2022/03/15 18:10:55;;;;;;;22.38;8.55;;;;;;;;;;6226731;23;20008;-90
2022/03/15 18:13:22;;;;;;;23.33;8.65;;;;;;;;;;6217435;23;20083;-90
2022/03/15 18:15:52;;;;;;;17.60;9.33;;;;;;;;;;6216910;23;20011;-91
2022/03/15 18:18:47;;;;;;;27.50;10.20;;;;;;;;;;6217611;23;20259;-91
2022/03/15 18:21:54;;;;;;;19.90;9.88;;;;;;;;;;6217053;23;20352;-92
2022/03/15 18:24:19;;;;;;;29.48;10.60;;;;;;;;;;6242317;23;20015;-91
2022/03/15 18:26:45;;;;;;;25.00;11.55;;;;;;;;;;6216232;23;20008;-90
2022/03/15 18:32:22;;;;;;;31.50;10.50;;;;;;;;;;6124231;23;20084;-91
2022/03/15 18:34:51;;;;;;;24.65;9.52;;;;;;;;;;6098332;23;20033;-90
2022/03/15 18:40:43;;;;;;;24.88;10.55;;;;;;;;;;6244182;22;20016;-90
2022/03/15 18:43:33;;;;;;;23.38;10.50;;;;;;;;;;6217988;23;20457;-93
2022/03/15 18:46:40;;;;;;;22.77;11.13;;;;;;;;;;6194384;23;20058;-95
2022/03/15 18:49:11;;;;;;;23.40;10.98;;;;;;;;;;6093852;23;20006;-93
2022/03/15 18:51:38;;;;;;;23.10;11.10;;;;;;;;;;6221532;23;20000;-92
2022/03/15 18:57:11;;;;;;;24.98;11.43;;;;;;;;;;6249068;23;19988;-91
2022/03/15 18:59:40;;;;;;;29.00;11.05;;;;;;;;;;6223856;23;20004;-91
2022/03/15 19:02:14;;;;;;;21.98;11.07;;;;;;;;;;6224324;23;20005;-91
2022/03/15 19:04:40;;;;;;;25.35;10.63;;;;;;;;;;6224488;23;20014;-90
2022/03/15 19:07:07;;;;;;;23.90;10.35;;;;;;;;;;6223359;23;20031;-89
2022/03/15 19:09:41;;;;;;;26.98;10.15;;;;;;;;;;6222648;23;20007;-92
2022/03/15 19:12:07;;;;;;;33.47;10.35;;;;;;;;;;6224253;23;20011;-90
2022/03/15 19:14:36;;;;;;;20.33;10.02;;;;;;;;;;6220467;23;20436;-91
2022/03/15 19:17:02;;;;;;;;;;;;;;;;;;6219919;23;20084;-90
2022/03/15 19:19:29;;;;;;;18.17;9.60;;;;;;;;;;6222275;23;19907;-92
2022/03/15 19:21:58;;;;;;;23.15;10.82;;;;;;;;;;6248422;23;20589;-91
2022/03/15 19:24:24;;;;;;;18.55;10.45;;;;;;;;;;6219301;23;20008;-92
2022/03/15 19:26:51;;;;;;;19.10;10.85;;;;;;;;;;6221187;23;20510;-91
2022/03/15 19:29:18;;;;;;;22.75;10.05;;;;;;;;;;6220803;23;20008;-91
2022/03/15 19:31:45;;;;;;;24.25;11.23;;;;;;;;;;6217167;23;20007;-91
2022/03/15 19:34:12;;;;;;;21.42;11.10;;;;;;;;;;6220976;23;20013;-91
2022/03/15 19:36:39;;;;;;;20.10;11.40;;;;;;;;;;6218017;23;20000;-91
2022/03/15 19:39:06;;;;;;;30.63;12.13;;;;;;;;;;6217999;23;20019;-91
2022/03/15 19:41:39;;;;;;;22.98;12.05;;;;;;;;;;6216727;23;20078;-90
2022/03/15 19:44:06;;;;;;;22.67;12.00;;;;;;;;;;6216751;23;20341;-90
2022/03/15 19:46:32;;;;;;;24.73;13.23;;;;;;;;;;6215928;23;20007;-90
2022/03/15 19:48:59;;;;;;;44.30;16.27;;;;;;;;;;6216979;23;20180;-91
2022/03/15 19:51:27;;;;;;;34.23;14.07;;;;;;;;;;6216973;23;20000;-90
2022/03/15 19:53:53;;;;;;;23.60;13.52;;;;;;;;;;6217091;23;20239;-90
2022/03/15 19:56:20;;;;;;;28.58;13.13;;;;;;;;;;6215932;23;20008;-90
2022/03/15 19:58:46;;;;;;;29.05;12.88;;;;;;;;;;6217923;23;20012;-90
2022/03/15 20:01:13;;;;;;;38.05;13.13;;;;;;;;;;6218471;23;20008;-88
2022/03/15 20:03:45;;;;;;;26.35;13.32;;;;;;;;;;6218956;23;20012;-91
2022/03/15 20:06:12;;;;;;;28.45;13.98;;;;;;;;;;6213362;23;20432;-82
2022/03/15 20:08:44;;;;;;;29.33;12.40;;;;;;;;;;6239428;23;20336;-82
2022/03/15 20:11:11;;;;;;;26.80;12.93;;;;;;;;;;6239854;23;19996;-86
2022/03/15 20:13:39;;;;;;;25.55;12.27;;;;;;;;;;6240493;23;20436;-83
2022/03/15 20:16:05;;;;;;;27.03;12.33;;;;;;;;;;6213163;23;20353;-83
2022/03/15 20:18:31;;;;;;;28.80;13.85;;;;;;;;;;6238675;23;20715;-83
2022/03/15 20:20:58;;;;;;;33.63;15.20;;;;;;;;;;6239675;23;20327;-94
2022/03/15 20:23:24;;;;;;;26.85;14.63;;;;;;;;;;6240374;23;20031;-83
2022/03/15 20:25:51;;;;;;;34.35;14.82;;;;;;;;;;6240939;23;20093;-93
2022/03/15 20:28:18;;;;;;;39.67;15.55;;;;;;;;;;6241864;23;20007;-88
2022/03/15 20:30:54;;;;;;;34.00;14.85;;;;;;;;;;6213359;23;20008;-94
2022/03/15 20:33:20;;;;;;;27.23;14.40;;;;;;;;;;6214888;23;20138;-83
2022/03/15 20:35:47;;;;;;;28.90;13.95;;;;;;;;;;6240621;23;20000;-93
2022/03/15 20:38:13;;;;;;;29.13;14.27;;;;;;;;;;6214482;23;20062;-83
2022/03/15 20:40:40;;;;;;;24.67;13.18;;;;;;;;;;6212734;23;20008;-85
2022/03/15 20:45:52;;;;;;;26.58;14.05;;;;;;;;;;6240602;23;20070;-91
2022/03/15 20:48:19;;;;;;;28.55;14.75;;;;;;;;;;6214763;23;20436;-92
2022/03/15 20:50:45;;;;;;;30.83;14.27;;;;;;;;;;6242017;23;20058;-84
2022/03/15 20:53:13;;;;;;;26.35;14.35;;;;;;;;;;6214398;23;20035;-94
2022/03/15 20:55:46;;;;;;;35.45;15.23;;;;;;;;;;6242847;23;19996;-86
2022/03/15 20:58:16;;;;;;;34.55;15.93;;;;;;;;;;6214562;23;20016;-92
2022/03/15 21:00:43;;;;;;;37.20;17.08;;;;;;;;;;6241953;23;19996;-92
2022/03/15 21:03:10;;;;;;;33.42;16.77;;;;;;;;;;6242245;23;20046;-94
2022/03/15 21:05:39;;;;;;;37.45;16.98;;;;;;;;;;6242427;23;20008;-95
2022/03/15 21:08:05;;;;;;;;;;;;;;;;;;6242472;23;20005;-92
2022/03/15 21:10:32;;;;;;;23.88;13.43;;;;;;;;;;6241685;23;19983;-94
2022/03/15 21:13:02;;;;;;;31.55;13.93;;;;;;;;;;6242227;23;20004;-92
2022/03/15 21:15:29;;;;;;;37.70;14.30;;;;;;;;;;6214855;23;20007;-91
2022/03/15 21:18:00;;;;;;;32.67;13.65;;;;;;;;;;6241506;23;20012;-93
2022/03/15 21:20:27;;;;;;;26.48;13.18;;;;;;;;;;6241277;23;20008;-83
2022/03/15 21:22:55;;;;;;;26.75;13.20;;;;;;;;;;6240187;23;20382;-83
2022/03/15 21:25:23;;;;;;;26.35;12.80;;;;;;;;;;6240329;23;20004;-83
2022/03/15 21:27:50;;;;;;;28.13;12.20;;;;;;;;;;6240341;23;20328;-83
2022/03/15 21:30:16;;;;;;;25.95;12.77;;;;;;;;;;6213630;23;20004;-83
2022/03/15 21:32:43;;;;;;;20.92;11.18;;;;;;;;;;6240513;23;20000;-84
2022/03/15 21:35:09;;;;;;;24.77;11.27;;;;;;;;;;6214289;23;20490;-84
2022/03/15 21:37:35;;;;;;;20.23;11.07;;;;;;;;;;6239941;23;20049;-84
2022/03/15 21:40:01;;;;;;;32.25;11.00;;;;;;;;;;6213005;23;20667;-85
2022/03/15 21:42:28;;;;;;;20.38;10.30;;;;;;;;;;6213494;23;20005;-83
2022/03/15 21:44:58;;;;;;;32.58;10.00;;;;;;;;;;6239694;23;20393;-86
2022/03/15 21:47:25;;;;;;;27.45;10.80;;;;;;;;;;6241052;23;20066;-83
2022/03/15 21:49:56;;;;;;;23.05;10.35;;;;;;;;;;6242297;23;20441;-90
2022/03/15 21:52:22;;;;;;;27.15;10.18;;;;;;;;;;6242248;23;20079;-83
2022/03/15 21:54:51;;;;;;;24.23;11.20;;;;;;;;;;6242057;23;20004;-84
2022/03/15 21:57:17;;;;;;;34.80;12.40;;;;;;;;;;6215146;23;20034;-83
2022/03/15 21:59:44;;;;;;;22.60;12.40;;;;;;;;;;6242252;23;20004;-86
2022/03/15 22:02:10;;;;;;;28.08;11.65;;;;;;;;;;6242996;23;20000;-84
2022/03/15 22:04:36;;;;;;;28.63;11.65;;;;;;;;;;6214951;23;20008;-84
2022/03/15 22:07:05;;;;;;;28.48;11.82;;;;;;;;;;6214938;23;20024;-84
2022/03/15 22:09:31;;;;;;;;;;;;;;;;;;6215837;23;20348;-84
2022/03/15 22:11:59;;;;;;;24.38;11.45;;;;;;;;;;6241698;23;20320;-85
2022/03/15 22:14:25;;;;;;;27.52;12.88;;;;;;;;;;6215070;23;20008;-86
2022/03/15 22:16:52;;;;;;;33.08;12.95;;;;;;;;;;6215152;23;20011;-84
2022/03/15 22:19:18;;;;;;;27.75;12.25;;;;;;;;;;6241698;23;20455;-83
2022/03/15 22:21:44;;;;;;;39.15;12.90;;;;;;;;;;6243107;23;20000;-83
2022/03/15 22:24:11;;;;;;;25.58;11.93;;;;;;;;;;6216003;23;20008;-83
2022/03/15 22:26:37;;;;;;;23.35;12.77;;;;;;;;;;6241770;23;20000;-83
2022/03/15 22:29:06;;;;;;;28.85;12.80;;;;;;;;;;6242071;23;20004;-83
2022/03/15 23:17:26;;;;;;;26.17;13.25;;;;;;;;;;6241374;23;20449;-83
2022/03/15 23:22:45;;;;;;;30.77;14.00;;;;;;;;;;6242755;23;20332;-83
2022/03/15 23:25:11;;;;;;;30.23;12.93;;;;;;;;;;6241055;23;20337;-83
2022/03/15 23:27:39;;;;;;;30.95;14.15;;;;;;;;;;6241032;23;20261;-84
2022/03/15 23:30:10;;;;;;;33.90;13.13;;;;;;;;;;6214139;23;20050;-84
2022/03/15 23:32:37;;;;;;;29.45;13.75;;;;;;;;;;6241244;23;20333;-84
2022/03/15 23:35:03;;;;;;;29.85;14.05;;;;;;;;;;6241121;23;20429;-85
2022/03/15 23:37:29;;;;;;;31.75;14.13;;;;;;;;;;6241107;23;20004;-84
2022/03/15 23:39:56;;;;;;;29.50;13.80;;;;;;;;;;6213790;23;20020;-83
2022/03/15 23:42:22;;;;;;;34.13;13.93;;;;;;;;;;6240784;23;20006;-83
2022/03/15 23:44:49;;;;;;;27.85;13.65;;;;;;;;;;6215433;23;20004;-83
2022/03/15 23:47:15;;;;;;;32.50;12.13;;;;;;;;;;6242160;23;20004;-84
2022/03/15 23:49:41;;;;;;;35.83;13.52;;;;;;;;;;6240974;23;20035;-83
2022/03/15 23:52:07;;;;;;;29.58;13.77;;;;;;;;;;6240996;23;20024;-83
2022/03/15 23:54:34;;;;;;;31.45;13.23;;;;;;;;;;6240574;23;20004;-84
2022/03/15 23:57:00;;;;;;;28.40;12.88;;;;;;;;;;6240769;23;20502;-83
2022/03/15 23:59:26;;;;;;;34.53;13.63;;;;;;;;;;6213862;23;20353;-83
